sensor_id;sensor_type;location;lat;lon;timestamp;pressure;altitude;pressure_sealevel;temperature;humidity
61408;BME280;47274;43.054;25.146;2022-11-20T07:51:12;95047.06;;;10.54;82.59
61408;BME280;47274;43.054;25.146;2022-11-20T07:53:39;95087.84;;;10.74;82.77
61408;BME280;47274;43.054;25.146;2022-11-20T07:56:05;95090.72;;;10.79;82.86
61408;BME280;47274;43.054;25.146;2022-11-20T07:58:31;95072.28;;;10.75;81.95
61408;BME280;47274;43.054;25.146;2022-11-20T08:01:05;95110.34;;;11.04;81.93
61408;BME280;47274;43.054;25.146;2022-11-20T08:03:31;95105.22;;;11.04;81.78
61408;BME280;47274;43.054;25.146;2022-11-20T08:06:02;95114.03;;;11.26;81.22
61408;BME280;47274;43.054;25.146;2022-11-20T08:08:28;95131.22;;;11.34;81.90
61408;BME280;47274;43.054;25.146;2022-11-20T08:10:58;95129.47;;;11.59;80.19
61408;BME280;47274;43.054;25.146;2022-11-20T08:13:44;95113.53;;;11.72;79.43
61408;BME280;47274;43.054;25.146;2022-11-20T08:16:28;95113.03;;;11.68;80.55
61408;BME280;47274;43.054;25.146;2022-11-20T08:18:55;95111.97;;;11.46;80.71
61408;BME280;47274;43.054;25.146;2022-11-20T08:21:22;95102.16;;;11.42;81.19
61408;BME280;47274;43.054;25.146;2022-11-20T08:23:47;95093.66;;;11.49;80.66
61408;BME280;47274;43.054;25.146;2022-11-20T08:26:13;95107.75;;;11.61;80.26
61408;BME280;47274;43.054;25.146;2022-11-20T08:28:39;95128.16;;;11.55;80.05
61408;BME280;47274;43.054;25.146;2022-11-20T08:31:05;95100.41;;;11.26;80.73
61408;BME280;47274;43.054;25.146;2022-11-20T08:33:31;95120.31;;;11.15;82.05
61408;BME280;47274;43.054;25.146;2022-11-20T08:36:02;95126.72;;;11.28;82.20
61408;BME280;47274;43.054;25.146;2022-11-20T08:38:29;95120.78;;;11.19;82.15
61408;BME280;47274;43.054;25.146;2022-11-20T08:41:01;95115.13;;;10.99;83.95
61408;BME280;47274;43.054;25.146;2022-11-20T08:43:45;95103.91;;;10.84;84.37
61408;BME280;47274;43.054;25.146;2022-11-20T08:46:11;95101.63;;;10.73;85.01
61408;BME280;47274;43.054;25.146;2022-11-20T08:48:37;95063.09;;;10.56;84.39
61408;BME280;47274;43.054;25.146;2022-11-20T08:51:03;95088.09;;;10.46;84.97
61408;BME280;47274;43.054;25.146;2022-11-20T08:53:31;95105.88;;;10.48;86.19
61408;BME280;47274;43.054;25.146;2022-11-20T08:55:57;95065.28;;;10.27;86.85
61408;BME280;47274;43.054;25.146;2022-11-20T08:58:24;95095.00;;;10.54;86.84
61408;BME280;47274;43.054;25.146;2022-11-20T09:00:50;95044.16;;;10.41;86.44
61408;BME280;47274;43.054;25.146;2022-11-20T09:03:16;95072.09;;;10.68;86.41
61408;BME280;47274;43.054;25.146;2022-11-20T09:05:42;95044.81;;;10.59;86.04
61408;BME280;47274;43.054;25.146;2022-11-20T09:08:09;95047.91;;;10.71;84.60
61408;BME280;47274;43.054;25.146;2022-11-20T09:10:35;95085.00;;;11.01;84.28
61408;BME280;47274;43.054;25.146;2022-11-20T09:13:02;95080.00;;;11.16;84.01
61408;BME280;47274;43.054;25.146;2022-11-20T09:15:28;95081.78;;;11.32;82.35
61408;BME280;47274;43.054;25.146;2022-11-20T09:17:54;95085.78;;;11.26;81.35
61408;BME280;47274;43.054;25.146;2022-11-20T09:20:20;95073.56;;;11.45;81.80
61408;BME280;47274;43.054;25.146;2022-11-20T09:22:48;95068.06;;;11.72;81.37
61408;BME280;47274;43.054;25.146;2022-11-20T09:25:13;95058.56;;;11.89;79.93
61408;BME280;47274;43.054;25.146;2022-11-20T09:27:39;95016.16;;;11.69;80.06
61408;BME280;47274;43.054;25.146;2022-11-20T09:30:09;95064.63;;;11.96;79.53
61408;BME280;47274;43.054;25.146;2022-11-20T09:32:35;95057.28;;;11.85;79.77
61408;BME280;47274;43.054;25.146;2022-11-20T09:35:01;95053.13;;;11.68;79.86
61408;BME280;47274;43.054;25.146;2022-11-20T09:37:28;95023.97;;;11.36;80.87
61408;BME280;47274;43.054;25.146;2022-11-20T09:39:54;95058.97;;;11.37;81.42
61408;BME280;47274;43.054;25.146;2022-11-20T09:51:35;95044.22;;;11.23;83.79
61408;BME280;47274;43.054;25.146;2022-11-20T09:54:21;95038.13;;;11.15;84.58
61408;BME280;47274;43.054;25.146;2022-11-20T09:57:00;95016.28;;;11.03;85.56
61408;BME280;47274;43.054;25.146;2022-11-20T09:59:42;95036.53;;;11.14;85.51
61408;BME280;47274;43.054;25.146;2022-11-20T10:02:27;95033.13;;;11.38;85.49
61408;BME280;47274;43.054;25.146;2022-11-20T10:05:12;95016.00;;;11.78;83.91
61408;BME280;47274;43.054;25.146;2022-11-20T10:07:55;95022.81;;;12.11;81.30
61408;BME280;47274;43.054;25.146;2022-11-20T10:10:33;95008.63;;;12.46;79.69
61408;BME280;47274;43.054;25.146;2022-11-20T10:15:52;95014.81;;;14.03;72.75
61408;BME280;47274;43.054;25.146;2022-11-20T10:24:24;95003.94;;;14.58;73.37
61408;BME280;47274;43.054;25.146;2022-11-20T10:29:49;94985.34;;;17.44;61.88
61408;BME280;47274;43.054;25.146;2022-11-20T10:32:20;94987.53;;;17.54;62.37
61408;BME280;47274;43.054;25.146;2022-11-20T10:35:21;94980.84;;;19.06;54.37
61408;BME280;47274;43.054;25.146;2022-11-20T10:37:53;94988.47;;;18.31;57.39
61408;BME280;47274;43.054;25.146;2022-11-20T10:43:13;95010.66;;;17.49;60.49
61408;BME280;47274;43.054;25.146;2022-11-20T10:45:50;95003.41;;;16.65;61.73
61408;BME280;47274;43.054;25.146;2022-11-20T10:48:24;94998.97;;;16.32;62.37
61408;BME280;47274;43.054;25.146;2022-11-20T10:58:52;95010.06;;;15.50;66.70
61408;BME280;47274;43.054;25.146;2022-11-20T11:01:21;94973.44;;;14.90;68.24
61408;BME280;47274;43.054;25.146;2022-11-20T11:03:52;95001.91;;;14.75;69.73
61408;BME280;47274;43.054;25.146;2022-11-20T11:06:25;95004.56;;;14.60;70.07
61408;BME280;47274;43.054;25.146;2022-11-20T11:08:57;94993.75;;;14.50;71.29
61408;BME280;47274;43.054;25.146;2022-11-20T11:11:30;94977.38;;;14.43;70.94
61408;BME280;47274;43.054;25.146;2022-11-20T11:14:14;94974.31;;;14.54;70.35
61408;BME280;47274;43.054;25.146;2022-11-20T11:16:53;94955.16;;;14.27;71.33
61408;BME280;47274;43.054;25.146;2022-11-20T11:19:20;94961.72;;;14.30;71.34
61408;BME280;47274;43.054;25.146;2022-11-20T11:21:48;94979.38;;;14.48;70.42
61408;BME280;47274;43.054;25.146;2022-11-20T11:24:26;94988.13;;;14.46;70.30
61408;BME280;47274;43.054;25.146;2022-11-20T11:27:04;94991.84;;;14.44;71.18
61408;BME280;47274;43.054;25.146;2022-11-20T11:29:36;94993.13;;;14.69;69.95
61408;BME280;47274;43.054;25.146;2022-11-20T11:32:08;95004.50;;;14.75;68.92
61408;BME280;47274;43.054;25.146;2022-11-20T11:34:34;94969.00;;;14.41;69.80
61408;BME280;47274;43.054;25.146;2022-11-20T11:37:02;95024.19;;;14.25;70.58
61408;BME280;47274;43.054;25.146;2022-11-20T11:39:31;95025.22;;;13.80;72.90
61408;BME280;47274;43.054;25.146;2022-11-20T11:42:00;95022.13;;;13.69;73.29
61408;BME280;47274;43.054;25.146;2022-11-20T11:44:33;95020.59;;;13.31;74.33
61408;BME280;47274;43.054;25.146;2022-11-20T11:47:24;95025.09;;;13.05;75.49
61408;BME280;47274;43.054;25.146;2022-11-20T12:03:39;95004.50;;;12.05;83.41
61408;BME280;47274;43.054;25.146;2022-11-20T12:06:15;95040.88;;;11.94;85.38
61408;BME280;47274;43.054;25.146;2022-11-20T12:09:14;94997.09;;;11.55;86.12
61408;BME280;47274;43.054;25.146;2022-11-20T12:14:48;95030.03;;;11.51;86.67
61408;BME280;47274;43.054;25.146;2022-11-20T12:17:17;95021.59;;;11.18;88.60
61408;BME280;47274;43.054;25.146;2022-11-20T12:19:43;95007.66;;;10.88;90.17
61408;BME280;47274;43.054;25.146;2022-11-20T12:22:25;95044.22;;;11.14;90.99
61408;BME280;47274;43.054;25.146;2022-11-20T12:25:20;95037.16;;;11.08;92.02
61408;BME280;47274;43.054;25.146;2022-11-20T12:30:22;95017.75;;;11.06;92.92
61408;BME280;47274;43.054;25.146;2022-11-20T12:36:07;95017.41;;;11.01;94.06
61408;BME280;47274;43.054;25.146;2022-11-20T12:44:39;95017.91;;;10.63;97.58
61408;BME280;47274;43.054;25.146;2022-11-20T13:00:30;94990.59;;;10.30;95.32
61408;BME280;47274;43.054;25.146;2022-11-20T13:08:33;95010.50;;;10.68;92.98
61408;BME280;47274;43.054;25.146;2022-11-20T13:11:19;95008.53;;;10.38;94.65
61408;BME280;47274;43.054;25.146;2022-11-20T13:14:11;95005.53;;;10.08;98.97
61408;BME280;47274;43.054;25.146;2022-11-20T13:16:50;95018.84;;;10.04;100.00
61408;BME280;47274;43.054;25.146;2022-11-20T13:19:19;94994.81;;;10.05;98.55
61408;BME280;47274;43.054;25.146;2022-11-20T13:21:48;95026.72;;;10.10;99.27
61408;BME280;47274;43.054;25.146;2022-11-20T13:27:00;95028.78;;;10.07;99.61
61408;BME280;47274;43.054;25.146;2022-11-20T13:29:27;95030.50;;;9.98;100.00
61408;BME280;47274;43.054;25.146;2022-11-20T13:34:34;95040.34;;;9.77;100.00
61408;BME280;47274;43.054;25.146;2022-11-20T13:37:01;95046.38;;;9.67;100.00
61408;BME280;47274;43.054;25.146;2022-11-20T13:39:36;95047.91;;;9.78;100.00
61408;BME280;47274;43.054;25.146;2022-11-20T13:44:48;95075.09;;;10.05;100.00
61408;BME280;47274;43.054;25.146;2022-11-20T13:47:25;95102.38;;;10.14;99.55
61408;BME280;47274;43.054;25.146;2022-11-20T13:49:52;95126.34;;;10.31;99.76
61408;BME280;47274;43.054;25.146;2022-11-20T13:55:40;95147.34;;;10.35;100.00
61408;BME280;47274;43.054;25.146;2022-11-20T14:01:23;95129.94;;;10.12;100.00
61408;BME280;47274;43.054;25.146;2022-11-20T14:03:50;95126.88;;;10.09;100.00
61408;BME280;47274;43.054;25.146;2022-11-20T14:06:32;95114.50;;;10.04;100.00
61408;BME280;47274;43.054;25.146;2022-11-20T14:09:00;95118.34;;;10.08;100.00
61408;BME280;47274;43.054;25.146;2022-11-20T14:11:30;95128.06;;;9.96;100.00
61408;BME280;47274;43.054;25.146;2022-11-20T14:14:10;95140.94;;;9.79;100.00
61408;BME280;47274;43.054;25.146;2022-11-20T14:16:40;95175.78;;;9.89;100.00
61408;BME280;47274;43.054;25.146;2022-11-20T14:21:47;95160.53;;;9.88;100.00
61408;BME280;47274;43.054;25.146;2022-11-20T14:24:18;95174.47;;;9.85;100.00
61408;BME280;47274;43.054;25.146;2022-11-20T14:26:46;95161.28;;;9.54;100.00
61408;BME280;47274;43.054;25.146;2022-11-20T14:29:21;95163.06;;;9.80;100.00
61408;BME280;47274;43.054;25.146;2022-11-20T14:31:54;95116.47;;;9.84;100.00
61408;BME280;47274;43.054;25.146;2022-11-20T14:34:25;95090.47;;;9.71;100.00
61408;BME280;47274;43.054;25.146;2022-11-20T14:37:00;95132.66;;;9.85;100.00
61408;BME280;47274;43.054;25.146;2022-11-20T14:39:42;95131.34;;;9.81;100.00
61408;BME280;47274;43.054;25.146;2022-11-20T14:42:30;95092.75;;;9.82;100.00
61408;BME280;47274;43.054;25.146;2022-11-20T14:44:58;95054.13;;;9.76;100.00
61408;BME280;47274;43.054;25.146;2022-11-20T14:47:31;95098.13;;;9.97;100.00
61408;BME280;47274;43.054;25.146;2022-11-20T14:49:59;95111.69;;;9.89;100.00
61408;BME280;47274;43.054;25.146;2022-11-20T14:52:27;95108.13;;;9.82;100.00
61408;BME280;47274;43.054;25.146;2022-11-20T14:54:58;95111.47;;;9.75;100.00
61408;BME280;47274;43.054;25.146;2022-11-20T14:57:35;95119.53;;;9.62;100.00
61408;BME280;47274;43.054;25.146;2022-11-20T15:02:44;95126.25;;;9.37;100.00
61408;BME280;47274;43.054;25.146;2022-11-20T15:05:12;95108.91;;;9.31;100.00
61408;BME280;47274;43.054;25.146;2022-11-20T15:07:41;95090.63;;;9.25;100.00
61408;BME280;47274;43.054;25.146;2022-11-20T15:10:18;95085.91;;;9.13;100.00
61408;BME280;47274;43.054;25.146;2022-11-20T15:12:53;95080.25;;;9.09;100.00
61408;BME280;47274;43.054;25.146;2022-11-20T15:15:31;95077.69;;;9.09;100.00
61408;BME280;47274;43.054;25.146;2022-11-20T15:17:58;95080.25;;;9.09;100.00
61408;BME280;47274;43.054;25.146;2022-11-20T15:20:28;95068.91;;;9.12;100.00
61408;BME280;47274;43.054;25.146;2022-11-20T15:22:55;95057.59;;;9.14;100.00
61408;BME280;47274;43.054;25.146;2022-11-20T15:25:22;95040.63;;;9.13;100.00
61408;BME280;47274;43.054;25.146;2022-11-20T15:27:57;95018.22;;;9.15;100.00
61408;BME280;47274;43.054;25.146;2022-11-20T15:30:23;95008.06;;;9.23;100.00
61408;BME280;47274;43.054;25.146;2022-11-20T15:32:49;95005.63;;;9.22;100.00
61408;BME280;47274;43.054;25.146;2022-11-20T15:35:15;95052.34;;;9.42;100.00
61408;BME280;47274;43.054;25.146;2022-11-20T15:37:42;95052.38;;;9.50;100.00
61408;BME280;47274;43.054;25.146;2022-11-20T15:40:08;95016.31;;;9.43;100.00
61408;BME280;47274;43.054;25.146;2022-11-20T15:42:34;95032.91;;;9.57;100.00
61408;BME280;47274;43.054;25.146;2022-11-20T15:45:02;95044.75;;;9.58;100.00
61408;BME280;47274;43.054;25.146;2022-11-20T15:47:31;95060.56;;;9.54;100.00
61408;BME280;47274;43.054;25.146;2022-11-20T15:49:58;95089.75;;;9.61;100.00
61408;BME280;47274;43.054;25.146;2022-11-20T15:52:24;95060.53;;;9.45;100.00
61408;BME280;47274;43.054;25.146;2022-11-20T15:54:50;95056.16;;;9.38;100.00
61408;BME280;47274;43.054;25.146;2022-11-20T15:57:16;95055.94;;;9.31;100.00
61408;BME280;47274;43.054;25.146;2022-11-20T15:59:42;95091.28;;;9.54;100.00
61408;BME280;47274;43.054;25.146;2022-11-20T16:02:12;95085.25;;;9.55;100.00
61408;BME280;47274;43.054;25.146;2022-11-20T16:04:39;95089.59;;;9.62;100.00
61408;BME280;47274;43.054;25.146;2022-11-20T16:07:06;95098.59;;;9.66;100.00
61408;BME280;47274;43.054;25.146;2022-11-20T16:09:32;95023.06;;;9.18;100.00
61408;BME280;47274;43.054;25.146;2022-11-20T16:11:58;95102.50;;;9.79;100.00
61408;BME280;47274;43.054;25.146;2022-11-20T16:14:27;95107.03;;;9.85;100.00
61408;BME280;47274;43.054;25.146;2022-11-20T16:17:12;95119.88;;;9.93;100.00
61408;BME280;47274;43.054;25.146;2022-11-20T16:19:57;95110.69;;;9.82;100.00
61408;BME280;47274;43.054;25.146;2022-11-20T16:22:25;95130.63;;;9.96;100.00
61408;BME280;47274;43.054;25.146;2022-11-20T16:24:52;95124.41;;;9.99;100.00
61408;BME280;47274;43.054;25.146;2022-11-20T16:27:18;95121.97;;;9.97;100.00
61408;BME280;47274;43.054;25.146;2022-11-20T16:29:47;95113.97;;;9.92;100.00
61408;BME280;47274;43.054;25.146;2022-11-20T16:32:13;95130.34;;;10.00;100.00
61408;BME280;47274;43.054;25.146;2022-11-20T16:34:39;95101.91;;;9.85;100.00
61408;BME280;47274;43.054;25.146;2022-11-20T16:37:05;95115.09;;;9.98;100.00
61408;BME280;47274;43.054;25.146;2022-11-20T16:39:32;95115.09;;;9.98;100.00
61408;BME280;47274;43.054;25.146;2022-11-20T16:41:59;95110.78;;;9.99;100.00
61408;BME280;47274;43.054;25.146;2022-11-20T16:44:28;95111.28;;;10.02;100.00
61408;BME280;47274;43.054;25.146;2022-11-20T16:46:56;95108.66;;;9.94;100.00
61408;BME280;47274;43.054;25.146;2022-11-20T16:49:23;95101.91;;;9.85;100.00
61408;BME280;47274;43.054;25.146;2022-11-20T16:51:49;95103.13;;;9.72;100.00
61408;BME280;47274;43.054;25.146;2022-11-20T16:54:16;95065.31;;;9.40;100.00
61408;BME280;47274;43.054;25.146;2022-11-20T16:56:43;95102.91;;;9.66;100.00
61408;BME280;47274;43.054;25.146;2022-11-20T16:59:12;95064.13;;;9.35;100.00
61408;BME280;47274;43.054;25.146;2022-11-20T17:01:38;95092.13;;;9.54;100.00
61408;BME280;47274;43.054;25.146;2022-11-20T17:04:06;95075.34;;;9.34;100.00
61408;BME280;47274;43.054;25.146;2022-11-20T17:06:34;95106.66;;;9.54;100.00
61408;BME280;47274;43.054;25.146;2022-11-20T17:09:03;95086.09;;;9.37;100.00
61408;BME280;47274;43.054;25.146;2022-11-20T17:11:30;95106.81;;;9.52;100.00
61408;BME280;47274;43.054;25.146;2022-11-20T17:13:58;95098.81;;;9.47;100.00
61408;BME280;47274;43.054;25.146;2022-11-20T17:16:29;95106.53;;;9.55;100.00
61408;BME280;47274;43.054;25.146;2022-11-20T17:18:58;95097.97;;;9.46;100.00
61408;BME280;47274;43.054;25.146;2022-11-20T17:21:24;95090.28;;;9.46;100.00
61408;BME280;47274;43.054;25.146;2022-11-20T17:23:52;95069.97;;;9.45;100.00
61408;BME280;47274;43.054;25.146;2022-11-20T17:26:22;95059.69;;;9.37;100.00
61408;BME280;47274;43.054;25.146;2022-11-20T17:28:59;95063.03;;;9.37;100.00
61408;BME280;47274;43.054;25.146;2022-11-20T17:31:26;95037.31;;;9.21;100.00
61408;BME280;47274;43.054;25.146;2022-11-20T17:33:53;95057.72;;;9.31;100.00
61408;BME280;47274;43.054;25.146;2022-11-20T17:36:19;95059.31;;;9.32;100.00
61408;BME280;47274;43.054;25.146;2022-11-20T17:38:46;95029.59;;;9.13;100.00
61408;BME280;47274;43.054;25.146;2022-11-20T17:41:16;95027.38;;;9.18;100.00
61408;BME280;47274;43.054;25.146;2022-11-20T17:43:43;95053.53;;;9.30;100.00
61408;BME280;47274;43.054;25.146;2022-11-20T17:46:17;95052.38;;;9.24;100.00
61408;BME280;47274;43.054;25.146;2022-11-20T17:48:45;95070.94;;;9.26;100.00
61408;BME280;47274;43.054;25.146;2022-11-20T17:51:17;95067.06;;;9.22;100.00
61408;BME280;47274;43.054;25.146;2022-11-20T17:53:48;95066.44;;;9.20;100.00
61408;BME280;47274;43.054;25.146;2022-11-20T17:56:15;95052.81;;;9.19;100.00
61408;BME280;47274;43.054;25.146;2022-11-20T17:59:03;95036.00;;;9.17;100.00
61408;BME280;47274;43.054;25.146;2022-11-20T18:01:29;94994.56;;;8.95;100.00
61408;BME280;47274;43.054;25.146;2022-11-20T18:03:55;95019.28;;;9.05;100.00
61408;BME280;47274;43.054;25.146;2022-11-20T18:06:24;95045.97;;;9.20;100.00
61408;BME280;47274;43.054;25.146;2022-11-20T18:08:52;95043.53;;;9.18;100.00
61408;BME280;47274;43.054;25.146;2022-11-20T18:11:25;95042.06;;;9.16;100.00
61408;BME280;47274;43.054;25.146;2022-11-20T18:13:54;95023.31;;;9.07;100.00
61408;BME280;47274;43.054;25.146;2022-11-20T18:16:47;95035.31;;;9.07;100.00
61408;BME280;47274;43.054;25.146;2022-11-20T18:19:16;95030.78;;;9.00;100.00
61408;BME280;47274;43.054;25.146;2022-11-20T18:21:42;95069.81;;;9.20;100.00
61408;BME280;47274;43.054;25.146;2022-11-20T18:24:09;95061.00;;;9.23;100.00
61408;BME280;47274;43.054;25.146;2022-11-20T18:26:39;95051.38;;;9.17;100.00
61408;BME280;47274;43.054;25.146;2022-11-20T18:29:11;95053.63;;;9.20;100.00
61408;BME280;47274;43.054;25.146;2022-11-20T18:31:38;95053.03;;;9.26;100.00
61408;BME280;47274;43.054;25.146;2022-11-20T18:34:04;95030.09;;;9.16;100.00
61408;BME280;47274;43.054;25.146;2022-11-20T18:36:31;95043.91;;;9.23;100.00
61408;BME280;47274;43.054;25.146;2022-11-20T18:38:59;95041.03;;;9.27;100.00
61408;BME280;47274;43.054;25.146;2022-11-20T18:41:28;94978.59;;;8.93;100.00
61408;BME280;47274;43.054;25.146;2022-11-20T18:44:16;95028.75;;;9.30;100.00
61408;BME280;47274;43.054;25.146;2022-11-20T18:47:03;95010.50;;;9.33;100.00
61408;BME280;47274;43.054;25.146;2022-11-20T18:49:29;95007.81;;;9.35;100.00
61408;BME280;47274;43.054;25.146;2022-11-20T18:51:59;94986.13;;;9.21;100.00
61408;BME280;47274;43.054;25.146;2022-11-20T18:54:25;95003.19;;;9.38;100.00
61408;BME280;47274;43.054;25.146;2022-11-20T18:56:51;94988.91;;;9.36;100.00
61408;BME280;47274;43.054;25.146;2022-11-20T18:59:18;95010.84;;;9.38;100.00
61408;BME280;47274;43.054;25.146;2022-11-20T19:01:48;95005.38;;;9.33;100.00
61408;BME280;47274;43.054;25.146;2022-11-20T19:04:15;95007.13;;;9.33;100.00
61408;BME280;47274;43.054;25.146;2022-11-20T19:06:47;94997.84;;;9.32;100.00
61408;BME280;47274;43.054;25.146;2022-11-20T19:09:20;94989.38;;;9.31;100.00
61408;BME280;47274;43.054;25.146;2022-11-20T19:11:47;94970.97;;;9.28;100.00
61408;BME280;47274;43.054;25.146;2022-11-20T19:14:13;94963.72;;;9.23;100.00
61408;BME280;47274;43.054;25.146;2022-11-20T19:16:40;94947.16;;;9.09;100.00
61408;BME280;47274;43.054;25.146;2022-11-20T19:19:08;94928.69;;;8.97;100.00
61408;BME280;47274;43.054;25.146;2022-11-20T19:21:34;94965.28;;;9.16;100.00
61408;BME280;47274;43.054;25.146;2022-11-20T19:24:02;94964.63;;;9.14;100.00
61408;BME280;47274;43.054;25.146;2022-11-20T19:26:29;94928.69;;;8.97;100.00
61408;BME280;47274;43.054;25.146;2022-11-20T19:28:55;94957.47;;;9.17;100.00
61408;BME280;47274;43.054;25.146;2022-11-20T19:31:23;94946.56;;;9.15;100.00
61408;BME280;47274;43.054;25.146;2022-11-20T19:33:53;94935.97;;;9.10;100.00
61408;BME280;47274;43.054;25.146;2022-11-20T19:36:28;94942.91;;;9.18;100.00
61408;BME280;47274;43.054;25.146;2022-11-20T19:38:55;94935.38;;;9.16;100.00
61408;BME280;47274;43.054;25.146;2022-11-20T19:41:24;94947.22;;;9.17;100.00
61408;BME280;47274;43.054;25.146;2022-11-20T19:43:56;94949.81;;;9.25;100.00
61408;BME280;47274;43.054;25.146;2022-11-20T19:46:24;94940.72;;;9.31;100.00
61408;BME280;47274;43.054;25.146;2022-11-20T19:48:50;94935.44;;;9.33;100.00
61408;BME280;47274;43.054;25.146;2022-11-20T19:51:19;94939.63;;;9.34;100.00
61408;BME280;47274;43.054;25.146;2022-11-20T19:53:46;94936.41;;;9.32;100.00
61408;BME280;47274;43.054;25.146;2022-11-20T19:56:12;94917.59;;;9.15;100.00
61408;BME280;47274;43.054;25.146;2022-11-20T19:58:38;94938.78;;;9.25;100.00
61408;BME280;47274;43.054;25.146;2022-11-20T20:01:18;94938.56;;;9.18;100.00
61408;BME280;47274;43.054;25.146;2022-11-20T20:03:45;94938.88;;;9.15;100.00
61408;BME280;47274;43.054;25.146;2022-11-20T20:06:17;94898.28;;;8.94;100.00
61408;BME280;47274;43.054;25.146;2022-11-20T20:08:43;94927.00;;;9.06;100.00
61408;BME280;47274;43.054;25.146;2022-11-20T20:11:11;94926.16;;;8.97;100.00
61408;BME280;47274;43.054;25.146;2022-11-20T20:13:37;94933.47;;;8.92;100.00
61408;BME280;47274;43.054;25.146;2022-11-20T20:16:07;94932.81;;;8.90;100.00
61408;BME280;47274;43.054;25.146;2022-11-20T20:18:34;94891.56;;;8.67;100.00
61408;BME280;47274;43.054;25.146;2022-11-20T20:21:08;94906.38;;;8.82;100.00
61408;BME280;47274;43.054;25.146;2022-11-20T20:23:35;94897.09;;;8.81;100.00
61408;BME280;47274;43.054;25.146;2022-11-20T20:26:02;94885.53;;;8.68;100.00
61408;BME280;47274;43.054;25.146;2022-11-20T20:28:29;94880.41;;;8.68;100.00
61408;BME280;47274;43.054;25.146;2022-11-20T20:31:01;94889.13;;;8.84;100.00
61408;BME280;47274;43.054;25.146;2022-11-20T20:33:31;94862.63;;;8.67;100.00
61408;BME280;47274;43.054;25.146;2022-11-20T20:35:57;94891.06;;;8.90;100.00
61408;BME280;47274;43.054;25.146;2022-11-20T20:38:23;94837.72;;;8.69;100.00
61408;BME280;47274;43.054;25.146;2022-11-20T20:40:50;94840.22;;;8.87;100.00
61408;BME280;47274;43.054;25.146;2022-11-20T20:43:16;94823.75;;;8.89;100.00
61408;BME280;47274;43.054;25.146;2022-11-20T20:45:49;94827.50;;;9.11;100.00
61408;BME280;47274;43.054;25.146;2022-11-20T20:48:17;94833.97;;;9.23;100.00
61408;BME280;47274;43.054;25.146;2022-11-20T20:51:15;94816.72;;;9.34;100.00
61408;BME280;47274;43.054;25.146;2022-11-20T20:53:41;94803.09;;;9.33;100.00
61408;BME280;47274;43.054;25.146;2022-11-20T20:56:08;94796.72;;;9.37;100.00
61408;BME280;47274;43.054;25.146;2022-11-20T20:58:35;94772.03;;;9.20;100.00
61408;BME280;47274;43.054;25.146;2022-11-20T21:01:02;94768.03;;;9.25;100.00
61408;BME280;47274;43.054;25.146;2022-11-20T21:03:32;94796.91;;;9.44;100.00
61408;BME280;47274;43.054;25.146;2022-11-20T21:05:58;94795.09;;;9.36;100.00
61408;BME280;47274;43.054;25.146;2022-11-20T21:08:24;94801.19;;;9.27;100.00
61408;BME280;47274;43.054;25.146;2022-11-20T21:10:53;94764.50;;;9.10;100.00
61408;BME280;47274;43.054;25.146;2022-11-20T21:13:20;94796.38;;;9.24;100.00
61408;BME280;47274;43.054;25.146;2022-11-20T21:15:49;94783.69;;;9.14;100.00
61408;BME280;47274;43.054;25.146;2022-11-20T21:18:17;94786.44;;;9.13;100.00
61408;BME280;47274;43.054;25.146;2022-11-20T21:20:44;94776.00;;;9.06;100.00
61408;BME280;47274;43.054;25.146;2022-11-20T21:23:29;94763.34;;;9.05;100.00
61408;BME280;47274;43.054;25.146;2022-11-20T21:25:55;94744.94;;;8.93;100.00
61408;BME280;47274;43.054;25.146;2022-11-20T21:28:21;94715.44;;;8.72;100.00
61408;BME280;47274;43.054;25.146;2022-11-20T21:30:47;94718.00;;;8.81;100.00
61408;BME280;47274;43.054;25.146;2022-11-20T21:33:13;94742.91;;;9.13;100.00
61408;BME280;47274;43.054;25.146;2022-11-20T21:35:39;94726.59;;;9.22;100.00
61408;BME280;47274;43.054;25.146;2022-11-20T21:38:07;94722.94;;;9.33;100.00
61408;BME280;47274;43.054;25.146;2022-11-20T21:40:32;94696.84;;;9.29;100.00
61408;BME280;47274;43.054;25.146;2022-11-20T21:42:58;94699.25;;;9.39;100.00
61408;BME280;47274;43.054;25.146;2022-11-20T21:45:24;94705.66;;;9.59;100.00
61408;BME280;47274;43.054;25.146;2022-11-20T21:47:51;94685.81;;;9.45;100.00
61408;BME280;47274;43.054;25.146;2022-11-20T21:50:17;94711.13;;;9.64;100.00
61408;BME280;47274;43.054;25.146;2022-11-20T21:52:43;94710.63;;;9.69;100.00
61408;BME280;47274;43.054;25.146;2022-11-20T21:55:09;94711.41;;;9.78;100.00
61408;BME280;47274;43.054;25.146;2022-11-20T21:57:38;94713.34;;;9.84;100.00
61408;BME280;47274;43.054;25.146;2022-11-20T22:00:04;94696.84;;;9.86;100.00
61408;BME280;47274;43.054;25.146;2022-11-20T22:02:37;94661.16;;;9.68;100.00
61408;BME280;47274;43.054;25.146;2022-11-20T22:05:05;94683.53;;;9.91;100.00
61408;BME280;47274;43.054;25.146;2022-11-20T22:07:31;94641.28;;;9.79;100.00
61408;BME280;47274;43.054;25.146;2022-11-20T22:09:57;94664.34;;;9.95;100.00
61408;BME280;47274;43.054;25.146;2022-11-20T22:12:23;94656.47;;;9.96;100.00
61408;BME280;47274;43.054;25.146;2022-11-20T22:14:49;94645.41;;;9.96;100.00
61408;BME280;47274;43.054;25.146;2022-11-20T22:17:14;94643.47;;;10.06;100.00
61408;BME280;47274;43.054;25.146;2022-11-20T22:19:40;94618.63;;;10.07;100.00
61408;BME280;47274;43.054;25.146;2022-11-20T22:22:06;94639.56;;;10.18;100.00
61408;BME280;47274;43.054;25.146;2022-11-20T22:24:32;94648.75;;;10.13;100.00
61408;BME280;47274;43.054;25.146;2022-11-20T22:26:58;94589.41;;;9.85;100.00
61408;BME280;47274;43.054;25.146;2022-11-20T22:29:24;94584.38;;;10.00;100.00
61408;BME280;47274;43.054;25.146;2022-11-20T22:31:51;94547.75;;;10.22;100.00
61408;BME280;47274;43.054;25.146;2022-11-20T22:34:17;94563.88;;;10.70;100.00